sensor_id;sensor_type;location;lat;lon;timestamp;pressure;altitude;pressure_sealevel;temperature;humidity
55460;BME280;41326;45.302;-122.946;2023-07-31T00:00:27;101258.62;;;22.47;45.29
55460;BME280;41326;45.302;-122.946;2023-07-31T00:02:57;101252.82;;;22.40;43.91
55460;BME280;41326;45.302;-122.946;2023-07-31T00:05:28;101246.72;;;22.47;45.07
55460;BME280;41326;45.302;-122.946;2023-07-31T00:07:59;101246.19;;;22.45;44.79
55460;BME280;41326;45.302;-122.946;2023-07-31T00:10:29;101249.03;;;22.41;44.17
55460;BME280;41326;45.302;-122.946;2023-07-31T00:12:59;101247.18;;;22.40;43.58
55460;BME280;41326;45.302;-122.946;2023-07-31T00:15:29;101244.17;;;22.37;44.41
55460;BME280;41326;45.302;-122.946;2023-07-31T00:18:00;101240.74;;;22.23;43.94
55460;BME280;41326;45.302;-122.946;2023-07-31T00:20:32;101235.85;;;22.22;43.63
55460;BME280;41326;45.302;-122.946;2023-07-31T00:23:01;101241.60;;;22.24;44.34
55460;BME280;41326;45.302;-122.946;2023-07-31T00:25:32;101238.21;;;22.22;44.39
55460;BME280;41326;45.302;-122.946;2023-07-31T00:28:04;101236.92;;;22.16;43.09
55460;BME280;41326;45.302;-122.946;2023-07-31T00:30:32;101233.19;;;22.14;43.11
55460;BME280;41326;45.302;-122.946;2023-07-31T00:33:02;101234.32;;;22.11;43.63
55460;BME280;41326;45.302;-122.946;2023-07-31T00:35:33;101233.29;;;22.13;43.86
55460;BME280;41326;45.302;-122.946;2023-07-31T00:38:04;101230.74;;;22.07;43.20
55460;BME280;41326;45.302;-122.946;2023-07-31T00:40:34;101230.68;;;22.05;42.47
55460;BME280;41326;45.302;-122.946;2023-07-31T00:43:04;101232.28;;;21.97;42.29
55460;BME280;41326;45.302;-122.946;2023-07-31T00:45:35;101234.83;;;21.83;43.54
55460;BME280;41326;45.302;-122.946;2023-07-31T00:48:07;101232.95;;;21.77;43.20
55460;BME280;41326;45.302;-122.946;2023-07-31T00:50:36;101240.21;;;21.78;44.23
55460;BME280;41326;45.302;-122.946;2023-07-31T00:53:06;101240.24;;;21.78;44.27
55460;BME280;41326;45.302;-122.946;2023-07-31T00:55:37;101235.40;;;21.80;42.67
55460;BME280;41326;45.302;-122.946;2023-07-31T00:58:07;101235.26;;;21.82;42.59
55460;BME280;41326;45.302;-122.946;2023-07-31T01:00:37;101230.04;;;21.79;43.28
55460;BME280;41326;45.302;-122.946;2023-07-31T01:03:10;101226.43;;;21.80;42.86
55460;BME280;41326;45.302;-122.946;2023-07-31T01:05:46;101226.00;;;21.87;44.08
55460;BME280;41326;45.302;-122.946;2023-07-31T01:08:20;101228.28;;;21.91;44.22
55460;BME280;41326;45.302;-122.946;2023-07-31T01:10:45;101222.74;;;21.87;42.59
55460;BME280;41326;45.302;-122.946;2023-07-31T01:13:09;101223.34;;;21.80;43.26
55460;BME280;41326;45.302;-122.946;2023-07-31T01:15:39;101222.65;;;21.77;42.79
55460;BME280;41326;45.302;-122.946;2023-07-31T01:18:09;101222.49;;;21.64;43.81
55460;BME280;41326;45.302;-122.946;2023-07-31T01:20:42;101221.28;;;21.65;43.54
55460;BME280;41326;45.302;-122.946;2023-07-31T01:25:48;101218.38;;;21.68;43.47
55460;BME280;41326;45.302;-122.946;2023-07-31T01:28:14;101219.44;;;21.66;42.50
55460;BME280;41326;45.302;-122.946;2023-07-31T01:30:44;101224.48;;;21.67;45.47
55460;BME280;41326;45.302;-122.946;2023-07-31T01:33:11;101225.78;;;21.80;47.35
55460;BME280;41326;45.302;-122.946;2023-07-31T01:35:44;101220.62;;;22.00;47.46
55460;BME280;41326;45.302;-122.946;2023-07-31T01:38:12;101217.76;;;22.10;46.62
55460;BME280;41326;45.302;-122.946;2023-07-31T01:40:43;101220.14;;;22.23;43.78
55460;BME280;41326;45.302;-122.946;2023-07-31T01:43:16;101218.22;;;22.24;43.75
55460;BME280;41326;45.302;-122.946;2023-07-31T01:45:43;101219.63;;;22.12;41.67
55460;BME280;41326;45.302;-122.946;2023-07-31T01:48:13;101221.88;;;22.11;44.61
55460;BME280;41326;45.302;-122.946;2023-07-31T01:50:43;101222.75;;;22.06;44.32
55460;BME280;41326;45.302;-122.946;2023-07-31T01:53:14;101226.38;;;22.09;44.02
55460;BME280;41326;45.302;-122.946;2023-07-31T01:55:44;101225.88;;;22.07;41.60
55460;BME280;41326;45.302;-122.946;2023-07-31T01:58:15;101225.48;;;21.99;42.71
55460;BME280;41326;45.302;-122.946;2023-07-31T02:00:45;101228.16;;;21.96;43.38
55460;BME280;41326;45.302;-122.946;2023-07-31T02:03:15;101229.29;;;21.98;45.69
55460;BME280;41326;45.302;-122.946;2023-07-31T02:05:50;101226.11;;;22.08;47.41
55460;BME280;41326;45.302;-122.946;2023-07-31T02:08:16;101226.44;;;22.06;49.06
55460;BME280;41326;45.302;-122.946;2023-07-31T02:10:47;101227.48;;;22.12;49.43
55460;BME280;41326;45.302;-122.946;2023-07-31T02:13:17;101226.99;;;22.21;48.28
55460;BME280;41326;45.302;-122.946;2023-07-31T02:15:47;101228.32;;;22.26;44.58
55460;BME280;41326;45.302;-122.946;2023-07-31T02:18:17;101228.80;;;22.18;43.58
55460;BME280;41326;45.302;-122.946;2023-07-31T02:20:49;101228.06;;;22.12;44.11
55460;BME280;41326;45.302;-122.946;2023-07-31T02:23:19;101231.22;;;22.02;42.57
55460;BME280;41326;45.302;-122.946;2023-07-31T02:25:48;101231.28;;;21.94;45.33
55460;BME280;41326;45.302;-122.946;2023-07-31T02:28:18;101234.31;;;21.95;46.30
55460;BME280;41326;45.302;-122.946;2023-07-31T02:30:50;101242.23;;;21.99;46.65
55460;BME280;41326;45.302;-122.946;2023-07-31T02:33:20;101244.36;;;22.11;46.69
55460;BME280;41326;45.302;-122.946;2023-07-31T02:35:49;101248.20;;;22.19;45.13
55460;BME280;41326;45.302;-122.946;2023-07-31T02:38:20;101250.93;;;22.19;44.23
55460;BME280;41326;45.302;-122.946;2023-07-31T02:40:50;101257.89;;;22.11;42.52
55460;BME280;41326;45.302;-122.946;2023-07-31T02:43:20;101261.73;;;22.04;42.07
55460;BME280;41326;45.302;-122.946;2023-07-31T02:45:51;101266.50;;;22.01;44.80
55460;BME280;41326;45.302;-122.946;2023-07-31T02:48:22;101272.21;;;22.03;45.53
55460;BME280;41326;45.302;-122.946;2023-07-31T02:50:53;101270.53;;;22.05;45.97
55460;BME280;41326;45.302;-122.946;2023-07-31T02:53:23;101272.78;;;22.07;46.35
55460;BME280;41326;45.302;-122.946;2023-07-31T02:55:53;101272.96;;;22.15;45.50
55460;BME280;41326;45.302;-122.946;2023-07-31T02:58:23;101274.69;;;22.09;42.89
55460;BME280;41326;45.302;-122.946;2023-07-31T03:00:53;101278.19;;;22.05;42.03
55460;BME280;41326;45.302;-122.946;2023-07-31T03:03:24;101273.60;;;21.95;43.41
55460;BME280;41326;45.302;-122.946;2023-07-31T03:05:54;101274.02;;;22.03;45.64
55460;BME280;41326;45.302;-122.946;2023-07-31T03:08:24;101275.79;;;22.06;46.25
55460;BME280;41326;45.302;-122.946;2023-07-31T03:10:55;101279.38;;;22.09;46.53
55460;BME280;41326;45.302;-122.946;2023-07-31T03:13:25;101277.24;;;22.09;44.77
55460;BME280;41326;45.302;-122.946;2023-07-31T03:15:55;101276.12;;;22.06;42.81
55460;BME280;41326;45.302;-122.946;2023-07-31T03:18:25;101275.28;;;21.93;42.65
55460;BME280;41326;45.302;-122.946;2023-07-31T03:20:56;101277.94;;;21.87;42.93
55460;BME280;41326;45.302;-122.946;2023-07-31T03:23:26;101276.40;;;21.76;42.48
55460;BME280;41326;45.302;-122.946;2023-07-31T03:26:01;101281.29;;;21.64;43.45
55460;BME280;41326;45.302;-122.946;2023-07-31T03:28:27;101287.51;;;21.41;41.75
55460;BME280;41326;45.302;-122.946;2023-07-31T03:30:57;101287.20;;;21.25;43.13
55460;BME280;41326;45.302;-122.946;2023-07-31T03:33:27;101290.66;;;21.23;43.26
55460;BME280;41326;45.302;-122.946;2023-07-31T03:35:59;101289.90;;;21.16;42.59
55460;BME280;41326;45.302;-122.946;2023-07-31T03:38:29;101285.91;;;21.14;41.69
55460;BME280;41326;45.302;-122.946;2023-07-31T03:40:59;101289.67;;;21.03;42.86
55460;BME280;41326;45.302;-122.946;2023-07-31T03:43:29;101291.05;;;20.94;42.49
55460;BME280;41326;45.302;-122.946;2023-07-31T03:46:00;101296.84;;;20.90;42.42
55460;BME280;41326;45.302;-122.946;2023-07-31T03:48:30;101303.46;;;20.86;41.64
55460;BME280;41326;45.302;-122.946;2023-07-31T03:51:00;101305.60;;;20.84;42.74
55460;BME280;41326;45.302;-122.946;2023-07-31T03:53:31;101305.79;;;20.87;42.67
55460;BME280;41326;45.302;-122.946;2023-07-31T03:56:01;101308.75;;;20.80;41.60
55460;BME280;41326;45.302;-122.946;2023-07-31T03:58:32;101305.84;;;20.70;41.37
55460;BME280;41326;45.302;-122.946;2023-07-31T04:01:02;101315.05;;;20.60;41.77
55460;BME280;41326;45.302;-122.946;2023-07-31T04:03:32;101312.96;;;20.52;43.04
55460;BME280;41326;45.302;-122.946;2023-07-31T04:06:02;101315.06;;;20.43;43.45
55460;BME280;41326;45.302;-122.946;2023-07-31T04:08:32;101319.12;;;20.45;42.59
55460;BME280;41326;45.302;-122.946;2023-07-31T04:11:02;101316.95;;;20.36;42.18
55460;BME280;41326;45.302;-122.946;2023-07-31T04:13:35;101316.60;;;20.32;42.59
55460;BME280;41326;45.302;-122.946;2023-07-31T04:16:04;101320.75;;;20.22;43.38
55460;BME280;41326;45.302;-122.946;2023-07-31T04:18:34;101324.02;;;20.25;42.36
55460;BME280;41326;45.302;-122.946;2023-07-31T04:21:04;101326.08;;;20.16;43.38
55460;BME280;41326;45.302;-122.946;2023-07-31T04:23:35;101324.50;;;20.08;42.92
55460;BME280;41326;45.302;-122.946;2023-07-31T04:26:05;101325.01;;;20.07;43.43
55460;BME280;41326;45.302;-122.946;2023-07-31T04:28:35;101323.62;;;20.07;42.43
55460;BME280;41326;45.302;-122.946;2023-07-31T04:31:05;101325.28;;;20.11;43.04
55460;BME280;41326;45.302;-122.946;2023-07-31T04:33:37;101322.14;;;20.02;42.06
55460;BME280;41326;45.302;-122.946;2023-07-31T04:36:06;101325.44;;;19.96;42.60
55460;BME280;41326;45.302;-122.946;2023-07-31T04:38:36;101322.52;;;19.89;42.97
55460;BME280;41326;45.302;-122.946;2023-07-31T04:41:06;101321.34;;;19.91;43.27
55460;BME280;41326;45.302;-122.946;2023-07-31T04:43:37;101321.91;;;19.84;42.41
55460;BME280;41326;45.302;-122.946;2023-07-31T04:46:07;101319.07;;;19.80;42.78
55460;BME280;41326;45.302;-122.946;2023-07-31T04:48:38;101317.46;;;19.81;42.08
55460;BME280;41326;45.302;-122.946;2023-07-31T04:51:08;101321.23;;;19.82;41.70
55460;BME280;41326;45.302;-122.946;2023-07-31T04:53:39;101321.77;;;19.81;43.17
55460;BME280;41326;45.302;-122.946;2023-07-31T04:56:09;101327.28;;;19.96;44.26
55460;BME280;41326;45.302;-122.946;2023-07-31T04:58:39;101328.44;;;20.11;44.32
55460;BME280;41326;45.302;-122.946;2023-07-31T05:01:10;101328.32;;;20.28;43.34
55460;BME280;41326;45.302;-122.946;2023-07-31T05:03:40;101335.56;;;20.30;41.45
55460;BME280;41326;45.302;-122.946;2023-07-31T05:06:10;101332.83;;;20.21;41.09
55460;BME280;41326;45.302;-122.946;2023-07-31T05:08:40;101330.25;;;20.19;43.48
55460;BME280;41326;45.302;-122.946;2023-07-31T05:11:11;101333.32;;;20.29;43.83
55460;BME280;41326;45.302;-122.946;2023-07-31T05:13:41;101338.33;;;20.37;43.99
55460;BME280;41326;45.302;-122.946;2023-07-31T05:16:12;101343.16;;;20.42;42.57
55460;BME280;41326;45.302;-122.946;2023-07-31T05:18:42;101336.78;;;20.37;41.49
55460;BME280;41326;45.302;-122.946;2023-07-31T05:21:12;101337.18;;;20.22;40.46
55460;BME280;41326;45.302;-122.946;2023-07-31T05:23:42;101340.45;;;20.24;43.67
55460;BME280;41326;45.302;-122.946;2023-07-31T05:26:13;101340.62;;;20.37;44.91
55460;BME280;41326;45.302;-122.946;2023-07-31T05:28:44;101339.90;;;20.41;45.07
55460;BME280;41326;45.302;-122.946;2023-07-31T05:31:13;101345.51;;;20.46;45.16
55460;BME280;41326;45.302;-122.946;2023-07-31T05:33:44;101346.67;;;20.58;45.08
55460;BME280;41326;45.302;-122.946;2023-07-31T05:36:14;101350.39;;;20.68;45.45
55460;BME280;41326;45.302;-122.946;2023-07-31T05:38:45;101349.00;;;20.71;46.40
55460;BME280;41326;45.302;-122.946;2023-07-31T05:41:16;101350.98;;;20.80;47.32
55460;BME280;41326;45.302;-122.946;2023-07-31T05:43:45;101349.85;;;20.83;47.77
55460;BME280;41326;45.302;-122.946;2023-07-31T05:46:16;101350.80;;;20.86;48.21
55460;BME280;41326;45.302;-122.946;2023-07-31T05:48:46;101349.06;;;20.88;48.78
55460;BME280;41326;45.302;-122.946;2023-07-31T05:51:17;101344.62;;;20.86;49.46
55460;BME280;41326;45.302;-122.946;2023-07-31T05:53:48;101344.97;;;20.87;49.57
55460;BME280;41326;45.302;-122.946;2023-07-31T05:56:16;101343.61;;;20.88;49.70
55460;BME280;41326;45.302;-122.946;2023-07-31T05:58:47;101342.72;;;20.90;49.65
55460;BME280;41326;45.302;-122.946;2023-07-31T06:01:17;101340.53;;;20.90;50.05
55460;BME280;41326;45.302;-122.946;2023-07-31T06:03:48;101337.35;;;20.93;50.45
55460;BME280;41326;45.302;-122.946;2023-07-31T06:06:18;101336.92;;;20.90;50.65
55460;BME280;41326;45.302;-122.946;2023-07-31T06:08:48;101336.92;;;20.87;50.71
55460;BME280;41326;45.302;-122.946;2023-07-31T06:11:20;101339.32;;;20.87;50.86
55460;BME280;41326;45.302;-122.946;2023-07-31T06:13:49;101337.13;;;20.84;51.05
55460;BME280;41326;45.302;-122.946;2023-07-31T06:16:20;101338.06;;;20.88;50.98
55460;BME280;41326;45.302;-122.946;2023-07-31T06:18:50;101338.41;;;20.90;50.65
55460;BME280;41326;45.302;-122.946;2023-07-31T06:21:21;101342.10;;;20.88;50.79
55460;BME280;41326;45.302;-122.946;2023-07-31T06:23:51;101349.62;;;20.85;51.05
55460;BME280;41326;45.302;-122.946;2023-07-31T06:26:21;101341.20;;;20.83;51.07
55460;BME280;41326;45.302;-122.946;2023-07-31T06:28:51;101341.00;;;20.77;50.79
55460;BME280;41326;45.302;-122.946;2023-07-31T06:31:21;101341.35;;;20.75;50.66
55460;BME280;41326;45.302;-122.946;2023-07-31T06:33:52;101339.06;;;20.73;50.71
55460;BME280;41326;45.302;-122.946;2023-07-31T06:36:22;101341.50;;;20.74;50.21
55460;BME280;41326;45.302;-122.946;2023-07-31T06:38:52;101336.29;;;20.68;50.38
55460;BME280;41326;45.302;-122.946;2023-07-31T06:41:22;101338.38;;;20.59;50.76
55460;BME280;41326;45.302;-122.946;2023-07-31T06:43:53;101341.37;;;20.57;51.29
55460;BME280;41326;45.302;-122.946;2023-07-31T06:46:23;101348.58;;;20.58;51.56
55460;BME280;41326;45.302;-122.946;2023-07-31T06:48:54;101339.48;;;20.54;51.20
55460;BME280;41326;45.302;-122.946;2023-07-31T06:51:23;101344.11;;;20.54;51.26
55460;BME280;41326;45.302;-122.946;2023-07-31T06:53:54;101347.92;;;20.56;50.99
55460;BME280;41326;45.302;-122.946;2023-07-31T06:56:25;101353.39;;;20.59;50.81
55460;BME280;41326;45.302;-122.946;2023-07-31T06:58:55;101342.73;;;20.59;50.61
55460;BME280;41326;45.302;-122.946;2023-07-31T07:01:25;101346.30;;;20.56;50.47
55460;BME280;41326;45.302;-122.946;2023-07-31T07:03:55;101349.72;;;20.54;50.97
55460;BME280;41326;45.302;-122.946;2023-07-31T07:06:26;101354.46;;;20.59;51.05
55460;BME280;41326;45.302;-122.946;2023-07-31T07:08:56;101357.93;;;20.61;51.04
55460;BME280;41326;45.302;-122.946;2023-07-31T07:11:26;101357.73;;;20.61;50.77
55460;BME280;41326;45.302;-122.946;2023-07-31T07:13:57;101357.59;;;20.64;50.39
55460;BME280;41326;45.302;-122.946;2023-07-31T07:16:28;101362.05;;;20.64;49.91
55460;BME280;41326;45.302;-122.946;2023-07-31T07:18:57;101356.56;;;20.56;50.03
55460;BME280;41326;45.302;-122.946;2023-07-31T07:22:36;101361.39;;;20.55;50.23
55460;BME280;41326;45.302;-122.946;2023-07-31T07:25:07;101361.12;;;20.56;50.37
55460;BME280;41326;45.302;-122.946;2023-07-31T07:27:38;101355.99;;;20.51;50.04
55460;BME280;41326;45.302;-122.946;2023-07-31T07:30:08;101356.98;;;20.43;50.25
55460;BME280;41326;45.302;-122.946;2023-07-31T07:32:39;101359.13;;;20.43;50.39
55460;BME280;41326;45.302;-122.946;2023-07-31T07:35:09;101360.54;;;20.41;50.34
55460;BME280;41326;45.302;-122.946;2023-07-31T07:37:39;101362.25;;;20.44;50.40
55460;BME280;41326;45.302;-122.946;2023-07-31T07:40:10;101362.14;;;20.43;50.38
55460;BME280;41326;45.302;-122.946;2023-07-31T07:42:40;101363.12;;;20.44;50.59
55460;BME280;41326;45.302;-122.946;2023-07-31T07:45:11;101365.38;;;20.48;50.85
55460;BME280;41326;45.302;-122.946;2023-07-31T07:47:41;101365.12;;;20.51;50.57
55460;BME280;41326;45.302;-122.946;2023-07-31T07:50:11;101368.97;;;20.53;50.65
55460;BME280;41326;45.302;-122.946;2023-07-31T07:52:49;101366.96;;;20.52;50.61
55460;BME280;41326;45.302;-122.946;2023-07-31T07:55:20;101372.56;;;20.53;50.68
55460;BME280;41326;45.302;-122.946;2023-07-31T07:57:50;101374.54;;;20.59;50.67
55460;BME280;41326;45.302;-122.946;2023-07-31T08:00:21;101373.09;;;20.57;50.63
55460;BME280;41326;45.302;-122.946;2023-07-31T08:02:51;101370.17;;;20.54;50.86
55460;BME280;41326;45.302;-122.946;2023-07-31T08:05:22;101376.41;;;20.60;50.92
55460;BME280;41326;45.302;-122.946;2023-07-31T08:07:52;101374.93;;;20.58;51.07
55460;BME280;41326;45.302;-122.946;2023-07-31T08:10:22;101379.31;;;20.59;50.93
55460;BME280;41326;45.302;-122.946;2023-07-31T08:12:52;101377.88;;;20.56;51.05
55460;BME280;41326;45.302;-122.946;2023-07-31T08:15:23;101379.18;;;20.58;51.08
55460;BME280;41326;45.302;-122.946;2023-07-31T08:17:53;101381.18;;;20.61;50.96
55460;BME280;41326;45.302;-122.946;2023-07-31T08:20:23;101378.60;;;20.61;51.05
55460;BME280;41326;45.302;-122.946;2023-07-31T08:22:53;101377.68;;;20.63;51.11
55460;BME280;41326;45.302;-122.946;2023-07-31T08:25:24;101377.13;;;20.65;51.20
55460;BME280;41326;45.302;-122.946;2023-07-31T08:27:54;101375.84;;;20.68;51.04
55460;BME280;41326;45.302;-122.946;2023-07-31T08:30:24;101381.79;;;20.63;51.16
55460;BME280;41326;45.302;-122.946;2023-07-31T08:32:55;101382.22;;;20.61;51.18
55460;BME280;41326;45.302;-122.946;2023-07-31T08:35:25;101380.62;;;20.58;51.25
55460;BME280;41326;45.302;-122.946;2023-07-31T08:37:55;101382.66;;;20.55;51.49
55460;BME280;41326;45.302;-122.946;2023-07-31T08:40:26;101390.52;;;20.51;51.30
55460;BME280;41326;45.302;-122.946;2023-07-31T08:42:59;101390.97;;;20.51;51.52
55460;BME280;41326;45.302;-122.946;2023-07-31T08:45:26;101392.41;;;20.55;51.49
55460;BME280;41326;45.302;-122.946;2023-07-31T08:47:58;101389.80;;;20.59;51.45
55460;BME280;41326;45.302;-122.946;2023-07-31T08:50:27;101389.74;;;20.55;50.97
55460;BME280;41326;45.302;-122.946;2023-07-31T08:52:58;101389.01;;;20.45;51.44
55460;BME280;41326;45.302;-122.946;2023-07-31T08:55:28;101389.36;;;20.40;51.63
55460;BME280;41326;45.302;-122.946;2023-07-31T08:57:58;101384.88;;;20.36;51.73
55460;BME280;41326;45.302;-122.946;2023-07-31T09:00:28;101383.39;;;20.31;51.70
55460;BME280;41326;45.302;-122.946;2023-07-31T09:03:07;101385.92;;;20.30;51.83
55460;BME280;41326;45.302;-122.946;2023-07-31T09:05:31;101386.46;;;20.29;51.80
55460;BME280;41326;45.302;-122.946;2023-07-31T09:08:01;101390.47;;;20.26;51.97
55460;BME280;41326;45.302;-122.946;2023-07-31T09:10:29;101388.00;;;20.26;52.11
55460;BME280;41326;45.302;-122.946;2023-07-31T09:13:00;101388.82;;;20.28;52.09
55460;BME280;41326;45.302;-122.946;2023-07-31T09:15:30;101391.12;;;20.34;51.98
55460;BME280;41326;45.302;-122.946;2023-07-31T09:18:05;101395.23;;;20.36;51.90
55460;BME280;41326;45.302;-122.946;2023-07-31T09:20:31;101395.54;;;20.35;51.87
55460;BME280;41326;45.302;-122.946;2023-07-31T09:25:32;101393.38;;;20.36;52.02
55460;BME280;41326;45.302;-122.946;2023-07-31T09:28:03;101391.33;;;20.37;52.01
55460;BME280;41326;45.302;-122.946;2023-07-31T09:30:41;101392.19;;;20.38;52.01
55460;BME280;41326;45.302;-122.946;2023-07-31T09:33:09;101391.10;;;20.36;52.09
55460;BME280;41326;45.302;-122.946;2023-07-31T09:35:36;101388.93;;;20.37;52.09
55460;BME280;41326;45.302;-122.946;2023-07-31T09:38:05;101389.45;;;20.33;52.21
55460;BME280;41326;45.302;-122.946;2023-07-31T09:40:35;101387.26;;;20.29;52.06
55460;BME280;41326;45.302;-122.946;2023-07-31T09:43:06;101389.39;;;20.27;52.15
55460;BME280;41326;45.302;-122.946;2023-07-31T09:45:36;101390.01;;;20.28;52.25
55460;BME280;41326;45.302;-122.946;2023-07-31T09:48:07;101390.65;;;20.28;52.22
55460;BME280;41326;45.302;-122.946;2023-07-31T09:50:36;101387.00;;;20.22;52.28
55460;BME280;41326;45.302;-122.946;2023-07-31T09:53:05;101385.68;;;20.15;52.55
55460;BME280;41326;45.302;-122.946;2023-07-31T09:55:37;101383.28;;;20.14;52.56
55460;BME280;41326;45.302;-122.946;2023-07-31T09:58:09;101381.61;;;20.10;52.67
55460;BME280;41326;45.302;-122.946;2023-07-31T10:00:37;101382.29;;;20.06;52.74
55460;BME280;41326;45.302;-122.946;2023-07-31T10:03:08;101383.42;;;20.08;52.79
55460;BME280;41326;45.302;-122.946;2023-07-31T10:05:40;101385.27;;;20.12;52.58
55460;BME280;41326;45.302;-122.946;2023-07-31T10:08:09;101383.78;;;20.10;52.73
55460;BME280;41326;45.302;-122.946;2023-07-31T10:10:39;101382.57;;;20.07;52.76
55460;BME280;41326;45.302;-122.946;2023-07-31T10:13:11;101383.51;;;20.08;52.88
55460;BME280;41326;45.302;-122.946;2023-07-31T10:15:39;101387.12;;;20.16;52.67
55460;BME280;41326;45.302;-122.946;2023-07-31T10:18:11;101388.11;;;20.16;52.71
55460;BME280;41326;45.302;-122.946;2023-07-31T10:20:39;101387.77;;;20.15;52.69
55460;BME280;41326;45.302;-122.946;2023-07-31T10:23:09;101388.94;;;20.13;52.78
55460;BME280;41326;45.302;-122.946;2023-07-31T10:25:40;101391.06;;;20.10;52.90
55460;BME280;41326;45.302;-122.946;2023-07-31T10:28:10;101388.91;;;20.10;52.89
55460;BME280;41326;45.302;-122.946;2023-07-31T10:30:40;101388.80;;;20.08;52.93
55460;BME280;41326;45.302;-122.946;2023-07-31T10:33:10;101391.62;;;20.07;52.91
55460;BME280;41326;45.302;-122.946;2023-07-31T10:35:40;101394.53;;;20.05;52.96
55460;BME280;41326;45.302;-122.946;2023-07-31T10:38:15;101393.68;;;20.04;53.02
55460;BME280;41326;45.302;-122.946;2023-07-31T10:40:41;101398.28;;;20.03;53.06
55460;BME280;41326;45.302;-122.946;2023-07-31T10:43:15;101395.43;;;20.08;52.94
55460;BME280;41326;45.302;-122.946;2023-07-31T10:45:43;101399.40;;;20.07;53.02
55460;BME280;41326;45.302;-122.946;2023-07-31T10:48:13;101404.11;;;20.00;53.14
55460;BME280;41326;45.302;-122.946;2023-07-31T10:50:47;101400.36;;;19.97;53.22
55460;BME280;41326;45.302;-122.946;2023-07-31T10:55:45;101401.02;;;20.01;53.17
55460;BME280;41326;45.302;-122.946;2023-07-31T10:58:14;101399.39;;;20.00;53.21
55460;BME280;41326;45.302;-122.946;2023-07-31T11:00:44;101402.63;;;20.02;53.19
55460;BME280;41326;45.302;-122.946;2023-07-31T11:03:15;101403.09;;;20.09;53.05
55460;BME280;41326;45.302;-122.946;2023-07-31T11:05:50;101400.95;;;20.12;52.95
55460;BME280;41326;45.302;-122.946;2023-07-31T11:08:20;101402.72;;;20.12;52.93
55460;BME280;41326;45.302;-122.946;2023-07-31T11:10:45;101401.87;;;20.09;53.07
55460;BME280;41326;45.302;-122.946;2023-07-31T11:13:15;101399.84;;;20.09;53.04
55460;BME280;41326;45.302;-122.946;2023-07-31T11:15:46;101400.56;;;20.12;52.96
55460;BME280;41326;45.302;-122.946;2023-07-31T11:18:16;101401.49;;;20.18;52.84
55460;BME280;41326;45.302;-122.946;2023-07-31T11:20:46;101405.96;;;20.19;52.81
55460;BME280;41326;45.302;-122.946;2023-07-31T11:23:17;101403.94;;;20.18;52.93
55460;BME280;41326;45.302;-122.946;2023-07-31T11:25:47;101408.84;;;20.19;52.94
55460;BME280;41326;45.302;-122.946;2023-07-31T11:28:19;101408.13;;;20.20;52.95
55460;BME280;41326;45.302;-122.946;2023-07-31T11:30:48;101408.48;;;20.19;53.00
55460;BME280;41326;45.302;-122.946;2023-07-31T11:33:19;101409.86;;;20.20;52.96
55460;BME280;41326;45.302;-122.946;2023-07-31T11:35:50;101411.19;;;20.20;52.96
55460;BME280;41326;45.302;-122.946;2023-07-31T11:38:24;101414.38;;;20.19;53.00
55460;BME280;41326;45.302;-122.946;2023-07-31T11:40:50;101412.46;;;20.18;53.03
55460;BME280;41326;45.302;-122.946;2023-07-31T11:43:21;101411.98;;;20.10;53.09
55460;BME280;41326;45.302;-122.946;2023-07-31T11:45:53;101410.39;;;20.11;53.11
55460;BME280;41326;45.302;-122.946;2023-07-31T11:48:26;101414.69;;;20.12;53.06
55460;BME280;41326;45.302;-122.946;2023-07-31T11:50:51;101419.06;;;20.12;53.10
55460;BME280;41326;45.302;-122.946;2023-07-31T11:53:25;101420.16;;;20.14;53.02
55460;BME280;41326;45.302;-122.946;2023-07-31T11:55:52;101427.06;;;20.14;52.97
55460;BME280;41326;45.302;-122.946;2023-07-31T11:58:23;101429.81;;;20.12;52.98
55460;BME280;41326;45.302;-122.946;2023-07-31T12:00:53;101432.31;;;20.13;52.97
55460;BME280;41326;45.302;-122.946;2023-07-31T12:03:23;101433.93;;;20.14;52.92
55460;BME280;41326;45.302;-122.946;2023-07-31T12:05:53;101432.28;;;20.09;53.03
55460;BME280;41326;45.302;-122.946;2023-07-31T12:08:24;101434.31;;;20.05;53.20
55460;BME280;41326;45.302;-122.946;2023-07-31T12:11:01;101438.68;;;20.02;53.07
55460;BME280;41326;45.302;-122.946;2023-07-31T12:13:27;101440.56;;;20.00;53.20
55460;BME280;41326;45.302;-122.946;2023-07-31T12:15:55;101443.01;;;20.00;53.17
55460;BME280;41326;45.302;-122.946;2023-07-31T12:18:26;101441.59;;;20.01;53.11
55460;BME280;41326;45.302;-122.946;2023-07-31T12:21:01;101446.77;;;20.00;53.15
55460;BME280;41326;45.302;-122.946;2023-07-31T12:23:27;101439.45;;;19.99;53.20
55460;BME280;41326;45.302;-122.946;2023-07-31T12:26:00;101442.93;;;20.01;53.14
55460;BME280;41326;45.302;-122.946;2023-07-31T12:28:28;101438.07;;;19.93;53.22
55460;BME280;41326;45.302;-122.946;2023-07-31T12:30:57;101438.02;;;19.87;53.43
55460;BME280;41326;45.302;-122.946;2023-07-31T12:33:31;101436.65;;;19.88;53.33
55460;BME280;41326;45.302;-122.946;2023-07-31T12:35:57;101442.18;;;19.89;53.32
55460;BME280;41326;45.302;-122.946;2023-07-31T12:38:28;101441.16;;;19.90;53.30
55460;BME280;41326;45.302;-122.946;2023-07-31T12:40:58;101443.17;;;19.87;53.31
55460;BME280;41326;45.302;-122.946;2023-07-31T12:43:29;101440.63;;;19.85;53.37